createdAt,value
2022-09-23T00:01:07.948Z,90.50
2022-09-23T00:04:09.924Z,91.20
2022-09-23T00:07:11.795Z,90.40
2022-09-23T00:10:13.586Z,90.80
2022-09-23T00:13:15.300Z,91.00
2022-09-23T00:16:19.356Z,94.60
2022-09-23T00:19:21.700Z,91.70
2022-09-23T00:22:23.541Z,91.50
2022-09-23T00:25:25.365Z,92.60
2022-09-23T00:28:27.268Z,93.30
2022-09-23T00:31:29.137Z,94.00
2022-09-23T00:34:31.178Z,94.00
2022-09-23T00:37:33.075Z,93.70
2022-09-23T00:40:36.424Z,93.30
2022-09-23T00:43:43.856Z,93.60
2022-09-23T00:46:45.710Z,96.20
2022-09-23T00:49:50.474Z,95.10
2022-09-23T00:52:54.237Z,95.60
2022-09-23T00:56:02.817Z,95.30
2022-09-23T00:59:04.992Z,96.40
2022-09-23T01:02:07.016Z,96.20
2022-09-23T01:05:09.468Z,97.00
2022-09-23T01:08:11.380Z,96.50
2022-09-23T01:11:37.304Z,99.90
2022-09-23T01:14:45.120Z,98.30
2022-09-23T01:18:06.194Z,96.20
2022-09-23T01:21:18.439Z,98.10
2022-09-23T01:24:31.053Z,99.00
2022-09-23T01:27:38.404Z,98.50
2022-09-23T01:31:09.992Z,99.90
2022-09-23T01:34:26.874Z,99.90
2022-09-23T01:37:48.428Z,99.90
2022-09-23T01:40:52.141Z,99.90
2022-09-23T01:44:08.338Z,98.10
2022-09-23T01:47:22.564Z,98.80
2022-09-23T01:50:48.858Z,98.70
2022-09-23T01:53:58.250Z,98.90
2022-09-23T01:57:15.785Z,98.60
2022-09-23T02:00:18.036Z,99.00
2022-09-23T02:03:27.379Z,98.60
2022-09-23T02:06:32.271Z,99.50
2022-09-23T02:09:39.899Z,99.30
2022-09-23T02:12:42.224Z,99.90
2022-09-23T02:15:46.287Z,99.90
2022-09-23T02:18:55.855Z,99.90
2022-09-23T02:22:02.868Z,99.90
2022-09-23T02:25:05.294Z,99.90
2022-09-23T02:28:09.391Z,99.90
2022-09-23T02:31:34.940Z,99.90
2022-09-23T02:34:43.021Z,99.90
2022-09-23T02:37:54.072Z,99.90
2022-09-23T02:41:07.388Z,99.90
2022-09-23T02:44:10.335Z,99.90
2022-09-23T02:47:12.277Z,99.90
2022-09-23T02:50:14.120Z,99.90
2022-09-23T02:53:16.245Z,99.90
2022-09-23T02:56:21.150Z,99.90
2022-09-23T02:59:23.191Z,99.90
2022-09-23T03:02:52.206Z,99.90
2022-09-23T03:05:55.601Z,99.90
2022-09-23T03:09:15.508Z,99.90
2022-09-23T03:12:25.287Z,99.90
2022-09-23T03:15:48.132Z,99.90
2022-09-23T03:18:56.632Z,99.90
2022-09-23T03:22:10.812Z,99.90
2022-09-23T03:25:16.037Z,99.90
2022-09-23T03:28:18.535Z,99.90
2022-09-23T03:31:20.473Z,99.90
2022-09-23T03:34:25.111Z,99.90
2022-09-23T03:38:00.573Z,99.90
2022-09-23T03:41:04.180Z,99.90
2022-09-23T03:44:07.535Z,99.90
2022-09-23T03:47:09.791Z,99.90
2022-09-23T03:50:13.464Z,99.90
2022-09-23T03:53:15.452Z,99.90
2022-09-23T03:56:17.385Z,99.90
2022-09-23T03:59:19.186Z,99.90
2022-09-23T04:02:21.307Z,99.90
2022-09-23T04:05:23.265Z,99.90
2022-09-23T04:08:25.079Z,99.90
2022-09-23T04:11:27.394Z,99.90
2022-09-23T04:14:29.242Z,99.90
2022-09-23T04:17:31.084Z,99.90
2022-09-23T04:20:33.033Z,99.90
2022-09-23T04:23:34.913Z,99.90
2022-09-23T04:26:36.983Z,99.90
2022-09-23T04:29:38.927Z,99.90
2022-09-23T04:32:40.726Z,99.90
2022-09-23T04:35:45.397Z,99.90
2022-09-23T04:38:47.553Z,99.90
2022-09-23T04:41:49.411Z,99.90
2022-09-23T04:44:51.212Z,99.90
2022-09-23T04:47:53.344Z,99.90
2022-09-23T04:50:55.535Z,99.90
2022-09-23T04:53:57.367Z,99.90
2022-09-23T04:56:59.216Z,99.90
2022-09-23T05:00:01.184Z,99.90
2022-09-23T05:03:02.975Z,99.90
2022-09-23T05:06:05.011Z,99.90
2022-09-23T05:09:08.032Z,99.90
2022-09-23T05:12:09.932Z,99.90
2022-09-23T05:15:13.132Z,99.90
2022-09-23T05:18:17.894Z,99.90
2022-09-23T05:21:23.766Z,99.90
2022-09-23T05:24:26.261Z,99.90
2022-09-23T05:27:28.484Z,99.90
2022-09-23T05:30:30.319Z,99.90
2022-09-23T05:33:33.280Z,99.90
2022-09-23T05:36:38.750Z,99.90
2022-09-23T05:39:40.901Z,99.90
2022-09-23T05:42:42.716Z,99.90
2022-09-23T05:45:44.530Z,99.90
2022-09-23T05:48:47.647Z,99.90
2022-09-23T05:51:49.528Z,99.90
2022-09-23T05:54:51.379Z,99.90
2022-09-23T05:57:53.283Z,99.90
2022-09-23T06:00:56.757Z,99.90
2022-09-23T06:03:58.846Z,99.90
2022-09-23T06:07:03.540Z,99.90
2022-09-23T06:10:06.622Z,99.90
2022-09-23T06:13:08.605Z,99.90
2022-09-23T06:16:15.245Z,99.90
2022-09-23T06:19:17.143Z,99.90
2022-09-23T06:22:18.983Z,99.90
2022-09-23T06:25:23.063Z,99.90
2022-09-23T06:28:24.884Z,99.90
2022-09-23T06:31:26.736Z,99.90
2022-09-23T06:34:28.751Z,99.90
2022-09-23T06:37:32.477Z,99.90
2022-09-23T06:40:34.697Z,99.90
2022-09-23T06:43:36.576Z,99.90
2022-09-23T06:46:38.485Z,99.90
2022-09-23T06:49:40.385Z,99.90
2022-09-23T06:52:42.289Z,99.90
2022-09-23T06:55:44.283Z,99.90
2022-09-23T06:58:46.235Z,99.90
2022-09-23T07:01:48.497Z,99.90
2022-09-23T07:04:51.319Z,99.90
2022-09-23T07:07:53.479Z,99.90
2022-09-23T07:10:59.076Z,99.90
2022-09-23T07:14:00.894Z,99.90
2022-09-23T07:17:03.711Z,99.90
2022-09-23T07:20:05.940Z,99.90
2022-09-23T07:23:07.841Z,99.90
2022-09-23T07:26:09.735Z,99.90
2022-09-23T07:29:13.554Z,99.90
2022-09-23T07:32:15.548Z,99.90
2022-09-23T07:35:17.482Z,99.90
2022-09-23T07:38:19.408Z,99.90
2022-09-23T07:41:21.220Z,99.90
2022-09-23T07:44:23.093Z,99.90
2022-09-23T07:47:24.985Z,99.90
2022-09-23T07:50:27.196Z,99.90
2022-09-23T07:53:31.447Z,99.90
2022-09-23T07:56:33.448Z,99.90
2022-09-23T07:59:35.300Z,99.90
2022-09-23T08:02:37.184Z,99.90
2022-09-23T08:05:39.005Z,99.90
2022-09-23T08:08:43.546Z,99.90
2022-09-23T08:11:45.561Z,99.90
2022-09-23T08:14:47.401Z,99.90
2022-09-23T08:17:49.368Z,99.90
2022-09-23T08:20:51.764Z,99.90
2022-09-23T08:23:53.625Z,99.90
2022-09-23T08:26:55.572Z,99.90
2022-09-23T08:29:57.427Z,99.90
2022-09-23T08:32:59.274Z,99.90
2022-09-23T08:36:01.707Z,99.90
2022-09-23T08:39:03.953Z,99.90
2022-09-23T08:42:16.712Z,99.90
2022-09-23T08:45:25.669Z,99.90
2022-09-23T08:48:29.270Z,99.90
2022-09-23T08:51:47.002Z,99.90
2022-09-23T08:54:53.171Z,99.90
2022-09-23T08:58:38.045Z,99.90
2022-09-23T09:01:40.613Z,99.90
2022-09-23T09:04:44.405Z,99.90
2022-09-23T09:07:46.741Z,99.90
2022-09-23T09:10:48.635Z,99.90
2022-09-23T09:14:00.076Z,99.90
2022-09-23T09:17:17.949Z,99.90
2022-09-23T09:20:32.409Z,99.90
2022-09-23T09:23:48.192Z,99.90
2022-09-23T09:26:50.067Z,99.90
2022-09-23T09:29:53.990Z,99.90
2022-09-23T09:33:00.343Z,99.90
2022-09-23T09:36:22.847Z,99.90
2022-09-23T09:39:26.303Z,99.90
2022-09-23T09:42:39.697Z,99.90
2022-09-23T09:46:04.253Z,99.90
2022-09-23T09:49:14.047Z,99.90
2022-09-23T09:52:29.904Z,99.90
2022-09-23T09:55:31.735Z,99.90
2022-09-23T09:58:47.950Z,99.90
2022-09-23T10:01:49.834Z,99.90
2022-09-23T10:05:21.719Z,99.90
2022-09-23T10:08:34.983Z,99.90
2022-09-23T10:11:36.992Z,99.90
2022-09-23T10:14:38.984Z,99.90
2022-09-23T10:17:41.329Z,99.90
2022-09-23T10:20:43.166Z,99.90
2022-09-23T10:23:45.823Z,99.90
2022-09-23T10:26:55.899Z,99.90
2022-09-23T10:30:05.719Z,99.90
2022-09-23T10:33:24.995Z,99.90
2022-09-23T10:36:35.849Z,99.90
2022-09-23T10:39:56.351Z,99.90
2022-09-23T10:43:53.075Z,99.90
2022-09-23T10:47:22.769Z,99.90
2022-09-23T10:50:39.080Z,99.90
2022-09-23T10:54:00.776Z,99.90
2022-09-23T10:57:34.252Z,99.90
2022-09-23T11:00:45.444Z,99.90
2022-09-23T11:04:03.682Z,99.90
2022-09-23T11:07:18.222Z,99.90
2022-09-23T11:10:41.938Z,99.90
2022-09-23T11:14:04.688Z,99.90
2022-09-23T11:17:17.799Z,99.90
2022-09-23T11:20:32.551Z,99.90
2022-09-23T11:23:56.069Z,99.90
2022-09-23T11:27:54.876Z,99.90
2022-09-23T11:31:27.141Z,99.90
2022-09-23T11:34:38.855Z,99.40
2022-09-23T11:37:43.449Z,99.40
2022-09-23T11:40:46.666Z,98.20
2022-09-23T11:43:52.377Z,96.90
2022-09-23T11:47:02.830Z,96.70
2022-09-23T11:50:12.680Z,94.50
2022-09-23T11:53:31.797Z,94.50
2022-09-23T11:56:49.195Z,90.90
2022-09-23T11:59:55.093Z,87.10
2022-09-23T12:03:11.987Z,92.00
2022-09-23T12:06:27.244Z,91.70
2022-09-23T12:10:01.154Z,94.00
2022-09-23T12:13:41.435Z,95.10
2022-09-23T12:17:21.774Z,94.60
2022-09-23T12:20:36.110Z,91.60
2022-09-23T12:23:54.122Z,91.50
2022-09-23T12:26:58.980Z,85.40
2022-09-23T12:30:07.252Z,87.40
2022-09-23T12:33:31.200Z,80.90
2022-09-23T12:36:36.730Z,78.80
2022-09-23T12:39:38.726Z,81.90
2022-09-23T12:42:44.148Z,74.40
2022-09-23T12:45:46.124Z,75.80
2022-09-23T12:48:57.353Z,77.70
2022-09-23T12:52:11.501Z,64.10
2022-09-23T12:55:33.586Z,68.90
2022-09-23T12:58:53.832Z,65.50
2022-09-23T13:01:55.941Z,75.60
2022-09-23T13:05:27.410Z,71.90
2022-09-23T13:08:29.227Z,65.90
2022-09-23T13:11:31.104Z,62.90
2022-09-23T13:14:32.981Z,63.40
2022-09-23T13:17:37.911Z,53.40
2022-09-23T13:20:40.582Z,57.20
2022-09-23T13:23:42.436Z,54.30
2022-09-23T13:26:55.230Z,52.60
2022-09-23T13:29:59.871Z,56.00
2022-09-23T13:33:31.170Z,56.10
2022-09-23T13:36:43.713Z,54.90
2022-09-23T13:39:45.538Z,56.50
2022-09-23T13:42:55.395Z,60.50
2022-09-23T13:45:57.253Z,62.80
2022-09-23T13:48:59.163Z,63.80
2022-09-23T13:52:01.256Z,61.20
2022-09-23T13:55:03.113Z,63.10
2022-09-23T13:58:13.413Z,55.90
2022-09-23T14:01:34.755Z,53.90
2022-09-23T14:04:36.719Z,52.70
2022-09-23T14:07:38.564Z,53.20
2022-09-23T14:10:45.005Z,52.30
2022-09-23T14:13:48.567Z,50.60
2022-09-23T14:16:50.929Z,52.30
2022-09-23T14:19:52.869Z,52.40
2022-09-23T14:23:09.924Z,45.20
2022-09-23T14:26:11.752Z,45.00
2022-09-23T14:29:17.906Z,50.50
2022-09-23T14:32:21.785Z,45.20
2022-09-23T14:35:28.540Z,43.30
2022-09-23T14:38:48.774Z,42.90
2022-09-23T14:41:50.595Z,36.50
2022-09-23T14:44:52.452Z,39.10
2022-09-23T14:47:59.078Z,31.50
2022-09-23T14:51:02.513Z,36.40
2022-09-23T14:54:23.468Z,35.70
2022-09-23T14:57:31.947Z,37.80
2022-09-23T15:00:34.015Z,35.30
2022-09-23T15:03:36.223Z,36.60
2022-09-23T15:06:38.720Z,33.90
2022-09-23T15:09:41.278Z,36.60
2022-09-23T15:12:44.948Z,36.70
2022-09-23T15:15:46.819Z,39.50
2022-09-23T15:18:54.037Z,38.00
2022-09-23T15:21:55.926Z,38.00
2022-09-23T15:25:16.980Z,40.70
2022-09-23T15:28:19.080Z,38.10
2022-09-23T15:31:22.069Z,41.70
2022-09-23T15:34:23.920Z,40.60
2022-09-23T15:37:31.730Z,41.50
2022-09-23T15:40:36.742Z,43.20
2022-09-23T15:43:39.964Z,39.80
2022-09-23T15:46:46.020Z,39.00
2022-09-23T15:49:47.985Z,40.20
2022-09-23T15:52:49.765Z,40.60
2022-09-23T15:55:52.167Z,38.30
2022-09-23T15:58:54.064Z,39.50
2022-09-23T16:01:56.552Z,39.40
2022-09-23T16:04:58.543Z,40.00
2022-09-23T16:08:02.800Z,41.50
2022-09-23T16:11:35.826Z,42.50
2022-09-23T16:14:37.693Z,43.30
2022-09-23T16:17:39.548Z,44.60
2022-09-23T16:20:42.953Z,44.10
2022-09-23T16:23:47.575Z,44.60
2022-09-23T16:26:49.554Z,44.20
2022-09-23T16:29:51.375Z,44.30
2022-09-23T16:32:53.387Z,44.10
2022-09-23T16:35:55.345Z,45.90
2022-09-23T16:39:01.954Z,48.40
2022-09-23T16:42:04.940Z,49.80
2022-09-23T16:45:07.375Z,49.30
2022-09-23T16:48:11.229Z,49.50
2022-09-23T16:51:18.737Z,49.10
2022-09-23T16:54:22.872Z,46.90
2022-09-23T16:57:24.795Z,47.90
2022-09-23T17:00:45.258Z,48.10
2022-09-23T17:03:47.831Z,49.50
2022-09-23T17:06:50.694Z,49.30
2022-09-23T17:09:52.560Z,49.80
2022-09-23T17:12:54.746Z,50.30
2022-09-23T17:15:56.726Z,49.00
2022-09-23T17:18:58.725Z,52.30
2022-09-23T17:22:00.636Z,52.30
2022-09-23T17:25:03.886Z,52.60
2022-09-23T17:28:05.711Z,52.90
2022-09-23T17:31:08.726Z,54.20
2022-09-23T17:34:10.735Z,54.20
2022-09-23T17:37:12.614Z,54.10
2022-09-23T17:40:14.720Z,56.10
2022-09-23T17:43:24.929Z,57.00
2022-09-23T17:46:28.910Z,58.60
2022-09-23T17:49:35.508Z,59.50
2022-09-23T17:52:37.348Z,60.50
2022-09-23T17:55:39.220Z,62.00
2022-09-23T17:58:41.340Z,63.80
2022-09-23T18:01:43.207Z,64.30
2022-09-23T18:04:45.068Z,65.50
2022-09-23T18:07:46.894Z,66.30
2022-09-23T18:10:48.733Z,67.30
2022-09-23T18:13:52.333Z,68.00
2022-09-23T18:16:54.223Z,69.40
2022-09-23T18:19:56.055Z,70.40
2022-09-23T18:22:58.022Z,71.10
2022-09-23T18:26:00.044Z,71.10
2022-09-23T18:29:02.212Z,70.90
2022-09-23T18:32:04.110Z,71.10
2022-09-23T18:35:06.695Z,71.80
2022-09-23T18:38:08.565Z,71.30
2022-09-23T18:41:11.149Z,70.70
2022-09-23T18:44:13.041Z,70.30
2022-09-23T18:47:34.893Z,68.90
2022-09-23T18:50:39.550Z,69.40
2022-09-23T18:53:42.013Z,68.10
2022-09-23T18:56:44.679Z,68.10
2022-09-23T18:59:47.359Z,68.00
2022-09-23T19:02:49.209Z,68.40
2022-09-23T19:05:51.422Z,67.90
2022-09-23T19:08:53.768Z,67.10
2022-09-23T19:11:55.675Z,66.70
2022-09-23T19:14:57.494Z,65.90
2022-09-23T19:17:59.388Z,65.90
2022-09-23T19:21:06.850Z,65.60
2022-09-23T19:24:12.133Z,66.40
2022-09-23T19:27:13.967Z,65.70
2022-09-23T19:30:16.148Z,65.90
2022-09-23T19:33:17.988Z,65.90
2022-09-23T19:36:26.724Z,65.40
2022-09-23T19:39:31.210Z,65.60
2022-09-23T19:42:33.945Z,64.40
2022-09-23T19:45:36.007Z,65.20
2022-09-23T19:48:37.864Z,63.50
2022-09-23T19:51:39.880Z,63.70
2022-09-23T19:54:41.688Z,63.40
2022-09-23T19:57:43.515Z,63.40
2022-09-23T20:00:45.390Z,63.40
2022-09-23T20:03:47.513Z,63.40
2022-09-23T20:06:49.657Z,63.30
2022-09-23T20:09:51.520Z,63.60
2022-09-23T20:12:53.576Z,65.50
2022-09-23T20:15:55.483Z,66.00
2022-09-23T20:18:57.564Z,65.60
2022-09-23T20:22:17.973Z,66.20
2022-09-23T20:25:19.853Z,66.10
2022-09-23T20:28:22.551Z,66.20
2022-09-23T20:31:25.169Z,66.70
2022-09-23T20:34:29.991Z,67.60
2022-09-23T20:37:33.068Z,67.40
2022-09-23T20:40:35.541Z,68.50
2022-09-23T20:43:37.406Z,68.90
2022-09-23T20:46:41.110Z,69.10
2022-09-23T20:49:46.283Z,70.10
2022-09-23T20:52:48.881Z,70.10
2022-09-23T20:55:51.331Z,71.30
2022-09-23T20:58:54.151Z,70.90
2022-09-23T21:01:58.222Z,71.60
2022-09-23T21:05:00.372Z,71.60
2022-09-23T21:08:03.280Z,71.60
2022-09-23T21:11:10.463Z,71.60
2022-09-23T21:14:12.379Z,72.20
2022-09-23T21:17:14.380Z,71.90
2022-09-23T21:20:16.548Z,73.00
2022-09-23T21:23:19.167Z,73.00
2022-09-23T21:26:24.683Z,73.30
2022-09-23T21:29:26.509Z,74.20
2022-09-23T21:32:28.298Z,74.60
2022-09-23T21:35:30.115Z,74.80
2022-09-23T21:38:37.391Z,75.60
2022-09-23T21:41:39.981Z,77.20
2022-09-23T21:44:41.841Z,77.30
2022-09-23T21:47:43.704Z,78.30
2022-09-23T21:50:56.743Z,78.20
2022-09-23T21:53:58.704Z,78.30
2022-09-23T21:57:00.654Z,78.00
2022-09-23T22:00:03.199Z,78.40
2022-09-23T22:03:06.716Z,78.20
2022-09-23T22:06:10.305Z,78.50
2022-09-23T22:09:14.720Z,79.20
2022-09-23T22:12:16.591Z,79.30
2022-09-23T22:15:19.695Z,78.10
2022-09-23T22:18:21.659Z,78.20
2022-09-23T22:21:24.449Z,77.80
2022-09-23T22:24:26.317Z,77.80
2022-09-23T22:27:28.140Z,77.80
2022-09-23T22:30:48.820Z,76.80
2022-09-23T22:33:50.681Z,76.40
2022-09-23T22:36:52.517Z,76.80
2022-09-23T22:39:54.526Z,76.80
2022-09-23T22:42:56.936Z,76.10
2022-09-23T22:45:59.790Z,76.90
2022-09-23T22:49:01.814Z,78.70
2022-09-23T22:52:07.019Z,76.70
2022-09-23T22:55:09.275Z,77.10
2022-09-23T22:58:31.182Z,78.60
2022-09-23T23:01:33.144Z,78.70
2022-09-23T23:04:37.218Z,79.40
2022-09-23T23:07:39.030Z,80.80
2022-09-23T23:10:40.975Z,80.30
2022-09-23T23:13:43.187Z,81.70
2022-09-23T23:16:46.208Z,83.20
2022-09-23T23:19:48.144Z,84.10
2022-09-23T23:22:49.952Z,84.50
2022-09-23T23:25:51.800Z,86.30
2022-09-23T23:28:53.775Z,86.20
2022-09-23T23:31:55.617Z,88.30
2022-09-23T23:34:57.467Z,88.30
2022-09-23T23:37:59.627Z,90.30
2022-09-23T23:41:05.141Z,91.00
2022-09-23T23:44:07.894Z,91.50
2022-09-23T23:47:09.758Z,91.40
2022-09-23T23:50:11.628Z,92.60
2022-09-23T23:53:13.465Z,93.10
2022-09-23T23:56:16.686Z,93.50
2022-09-23T23:59:19.747Z,93.50
